CheckWX is a tool to help pilots better visualize weather data.  It is not intended as a substitute for an official pre-flight weather briefing.

07:45:33 UTC

KRID METAR
Richmond Municipal Airport
Richmond, Indiana, USA
Current

51 mins ago

KRID 210655Z AUTO 04006KT 10SM CLR 06/06 A3008 RMK AO2
Observed
May-21 @ 06:55 UTC
Wind
  • 040° at 6 KTS
Visibility
10 SM
Flight Rules
VFR
Cloud Levels
  • Clear skies
Temperature
C / 43°F
Dewpoint
C / 43°F
Humidity
100%
Altimeter
30.08" Hg
Pressure
1018.62 hPa
Previous

1 hour ago

KRID 210635Z AUTO 03005KT 10SM CLR 06/06 A3010 RMK AO2
Observed
May-21 @ 06:35 UTC
Wind
  • 030° at 5 KTS
Visibility
10 SM
Flight Rules
VFR
Cloud Levels
  • Clear skies
Temperature
C / 43°F
Dewpoint
C / 43°F
Humidity
100%
Altimeter
30.1" Hg
Pressure
1019.32 hPa
Previous

2 hours ago

KRID 210615Z AUTO 02005KT 10SM CLR 06/06 A3011 RMK AO2
Observed
May-21 @ 06:15 UTC
Wind
  • 020° at 5 KTS
Visibility
10 SM
Flight Rules
VFR
Cloud Levels
  • Clear skies
Temperature
C / 43°F
Dewpoint
C / 43°F
Humidity
100%
Altimeter
30.11" Hg
Pressure
1019.62 hPa